createdAt,value
2018-05-07T00:01:01.522Z,102464.35
2018-05-07T00:03:27.645Z,102463.06
2018-05-07T00:05:53.801Z,102462.23
2018-05-07T00:08:20.061Z,102468.86
2018-05-07T00:10:46.165Z,102467.09
2018-05-07T00:13:12.328Z,102465.36
2018-05-07T00:15:38.770Z,102468.46
2018-05-07T00:18:04.937Z,102462.29
2018-05-07T00:20:31.124Z,102465.44
2018-05-07T00:22:57.249Z,102454.96
2018-05-07T00:25:23.376Z,102452.43
2018-05-07T00:27:49.544Z,102449.78
2018-05-07T00:30:15.909Z,102455.53
2018-05-07T00:32:42.065Z,102455.53
2018-05-07T00:35:08.337Z,102451.13
2018-05-07T00:37:34.462Z,102444.91
2018-05-07T00:40:00.591Z,102450.20
2018-05-07T00:42:26.753Z,102445.84
2018-05-07T00:44:52.886Z,102444.53
2018-05-07T00:47:19.154Z,102445.84
2018-05-07T00:49:45.290Z,102443.19
2018-05-07T00:52:11.680Z,102448.50
2018-05-07T00:54:50.136Z,102452.05
2018-05-07T00:57:16.325Z,102456.03
2018-05-07T00:59:42.756Z,102446.34
2018-05-07T01:02:08.926Z,102450.36
2018-05-07T01:04:35.222Z,102442.86
2018-05-07T01:07:01.360Z,102447.28
2018-05-07T01:09:27.773Z,102449.50
2018-05-07T01:11:53.965Z,102448.64
2018-05-07T01:14:20.096Z,102453.92
2018-05-07T01:16:46.286Z,102452.61
2018-05-07T01:19:12.688Z,102453.95
2018-05-07T01:21:38.820Z,102450.94
2018-05-07T01:24:05.241Z,102453.15
2018-05-07T01:26:31.445Z,102451.88
2018-05-07T01:28:57.605Z,102448.38
2018-05-07T01:31:23.745Z,102452.35
2018-05-07T01:33:50.319Z,102450.59
2018-05-07T01:36:16.454Z,102451.91
2018-05-07T01:38:42.581Z,102445.77
2018-05-07T01:41:09.045Z,102446.23
2018-05-07T01:43:35.170Z,102441.41
2018-05-07T01:46:01.705Z,102437.88
2018-05-07T01:48:27.846Z,102438.75
2018-05-07T01:50:53.977Z,102441.86
2018-05-07T01:53:20.624Z,102446.70
2018-05-07T01:55:46.765Z,102444.05
2018-05-07T01:58:12.890Z,102444.03
2018-05-07T02:00:39.080Z,102445.38
2018-05-07T02:03:05.237Z,102451.55
2018-05-07T02:05:31.361Z,102446.71
2018-05-07T02:07:57.599Z,102451.97
2018-05-07T02:10:23.989Z,102448.93
2018-05-07T02:12:50.421Z,102445.87
2018-05-07T02:15:16.991Z,102442.80
2018-05-07T02:17:43.388Z,102439.30
2018-05-07T02:20:09.526Z,102443.70
2018-05-07T02:22:36.032Z,102443.33
2018-05-07T02:25:02.161Z,102434.96
2018-05-07T02:27:28.295Z,102434.52
2018-05-07T02:29:54.477Z,102432.78
2018-05-07T02:32:20.856Z,102427.98
2018-05-07T02:34:46.986Z,102424.48
2018-05-07T02:37:13.623Z,102424.96
2018-05-07T02:39:39.774Z,102428.52
2018-05-07T02:42:05.897Z,102424.98
2018-05-07T02:44:32.068Z,102418.80
2018-05-07T02:46:58.225Z,102421.02
2018-05-07T02:49:24.661Z,102421.06
2018-05-07T02:51:50.796Z,102424.16
2018-05-07T02:54:17.225Z,102424.60
2018-05-07T02:56:43.372Z,102429.43
2018-05-07T02:59:09.652Z,102428.16
2018-05-07T03:01:36.008Z,102429.48
2018-05-07T03:04:02.145Z,102429.03
2018-05-07T03:06:28.305Z,102434.79
2018-05-07T03:09:01.264Z,102426.89
2018-05-07T03:11:27.449Z,102429.52
2018-05-07T03:13:53.576Z,102423.33
2018-05-07T03:16:19.866Z,102424.20
2018-05-07T03:18:46.001Z,102426.87
2018-05-07T03:21:12.495Z,102425.53
2018-05-07T03:23:38.656Z,102428.59
2018-05-07T03:26:04.797Z,102428.13
2018-05-07T03:28:31.079Z,102428.58
2018-05-07T03:30:57.218Z,102423.30
2018-05-07T03:33:23.357Z,102423.73
2018-05-07T03:35:49.648Z,102423.30
2018-05-07T03:38:15.789Z,102422.90
2018-05-07T03:40:41.925Z,102419.79
2018-05-07T03:43:08.127Z,102422.39
2018-05-07T03:45:34.285Z,102417.56
2018-05-07T03:48:00.688Z,102417.55
2018-05-07T03:50:26.852Z,102414.88
2018-05-07T03:52:52.992Z,102412.67
2018-05-07T03:55:19.262Z,102416.23
2018-05-07T03:57:45.404Z,102419.30
2018-05-07T04:00:11.544Z,102417.99
2018-05-07T04:02:37.720Z,102423.30
2018-05-07T04:05:03.854Z,102426.80
2018-05-07T04:07:30.101Z,102423.26
2018-05-07T04:09:56.230Z,102425.42
2018-05-07T04:12:22.570Z,102412.25
2018-05-07T04:14:49.103Z,102409.18
2018-05-07T04:17:29.370Z,102407.88
2018-05-07T04:20:07.947Z,102406.58
2018-05-07T04:22:46.333Z,102416.30
2018-05-07T04:25:12.504Z,102419.40
2018-05-07T04:27:39.051Z,102415.91
2018-05-07T04:30:05.190Z,102416.39
2018-05-07T04:32:31.323Z,102417.70
2018-05-07T04:34:57.485Z,102410.67
2018-05-07T04:37:23.612Z,102417.27
2018-05-07T04:39:50.204Z,102414.16
2018-05-07T04:42:16.386Z,102418.12
2018-05-07T04:44:42.509Z,102416.80
2018-05-07T04:47:08.672Z,102416.39
2018-05-07T04:49:34.855Z,102421.66
2018-05-07T04:52:01.038Z,102417.68
2018-05-07T04:54:27.192Z,102423.41
2018-05-07T04:56:53.682Z,102424.70
2018-05-07T04:59:20.222Z,102428.19
2018-05-07T05:01:46.391Z,102429.50
2018-05-07T05:04:12.525Z,102429.87
2018-05-07T05:06:39.415Z,102431.17
2018-05-07T05:09:05.542Z,102428.09
2018-05-07T05:11:31.795Z,102433.31
2018-05-07T05:13:58.717Z,102433.31
2018-05-07T05:16:24.861Z,102432.44
2018-05-07T05:18:51.005Z,102429.75
2018-05-07T05:21:17.262Z,102429.30
2018-05-07T05:23:43.353Z,102432.39
2018-05-07T05:26:09.484Z,102428.00
2018-05-07T05:28:35.976Z,102425.80
2018-05-07T05:31:02.116Z,102419.17
2018-05-07T05:33:28.681Z,102420.91
2018-05-07T05:35:54.809Z,102420.91
2018-05-07T05:38:20.938Z,102422.69
2018-05-07T05:40:47.124Z,102422.64
2018-05-07T05:43:13.657Z,102424.80
2018-05-07T05:45:39.803Z,102423.05
2018-05-07T05:48:05.956Z,102425.22
2018-05-07T05:50:32.447Z,102419.92
2018-05-07T05:52:58.613Z,102417.70
2018-05-07T05:55:24.753Z,102415.90
2018-05-07T05:57:51.037Z,102414.58
2018-05-07T06:00:17.185Z,102420.30
2018-05-07T06:02:43.320Z,102420.72
2018-05-07T06:05:09.848Z,102420.67
2018-05-07T06:07:36.245Z,102421.10
2018-05-07T06:10:02.417Z,102412.27
2018-05-07T06:12:28.746Z,102411.81
2018-05-07T06:14:54.999Z,102409.18
2018-05-07T06:17:21.467Z,102407.44
2018-05-07T06:19:47.681Z,102417.97
2018-05-07T06:22:13.805Z,102409.16
2018-05-07T06:24:39.994Z,102414.41
2018-05-07T06:27:06.151Z,102407.81
2018-05-07T06:29:32.276Z,102414.40
2018-05-07T06:31:58.470Z,102413.06
2018-05-07T06:34:24.770Z,102411.71
2018-05-07T06:36:50.882Z,102409.95
2018-05-07T06:39:17.053Z,102409.48
2018-05-07T06:41:43.504Z,102411.69
2018-05-07T06:44:09.926Z,102416.92
2018-05-07T06:46:36.063Z,102416.91
2018-05-07T06:49:02.226Z,102415.12
2018-05-07T06:51:28.411Z,102416.02
2018-05-07T06:53:54.602Z,102416.40
2018-05-07T06:56:20.770Z,102422.13
2018-05-07T06:58:47.037Z,102412.86
2018-05-07T07:01:13.205Z,102420.33
2018-05-07T07:03:39.348Z,102420.77
2018-05-07T07:06:05.824Z,102416.34
2018-05-07T07:08:32.046Z,102415.91
2018-05-07T07:10:58.181Z,102415.85
2018-05-07T07:13:24.340Z,102418.02
2018-05-07T07:15:50.641Z,102410.07
2018-05-07T07:18:16.764Z,102413.55
2018-05-07T07:20:42.908Z,102407.38
2018-05-07T07:23:09.073Z,102404.28
2018-05-07T07:25:35.208Z,102403.84
2018-05-07T07:28:01.570Z,102405.11
2018-05-07T07:30:27.677Z,102404.69
2018-05-07T07:32:53.824Z,102396.28
2018-05-07T07:35:20.094Z,102399.37
2018-05-07T07:37:46.582Z,102400.67
2018-05-07T07:40:12.734Z,102404.17
2018-05-07T07:42:38.913Z,102410.73
2018-05-07T07:45:05.370Z,102407.62
2018-05-07T07:47:31.512Z,102408.52
2018-05-07T07:49:57.685Z,102406.72
2018-05-07T07:52:23.950Z,102409.78
2018-05-07T07:54:50.091Z,102406.27
2018-05-07T07:57:16.223Z,102411.06
2018-05-07T07:59:42.637Z,102413.27
2018-05-07T08:02:08.806Z,102413.24
2018-05-07T08:04:34.933Z,102421.12
2018-05-07T08:07:01.109Z,102417.59
2018-05-07T08:09:27.552Z,102421.09
2018-05-07T08:11:53.741Z,102430.33
2018-05-07T08:14:19.901Z,102418.88
2018-05-07T08:16:46.439Z,102421.91
2018-05-07T08:19:12.575Z,102416.18
2018-05-07T08:21:38.745Z,102418.33
2018-05-07T08:24:04.890Z,102416.11
2018-05-07T08:26:31.086Z,102413.44
2018-05-07T08:28:57.272Z,102420.91
2018-05-07T08:31:23.427Z,102412.98
2018-05-07T08:33:49.830Z,102419.13
2018-05-07T08:36:16.365Z,102414.69
2018-05-07T08:38:42.492Z,102412.05
2018-05-07T08:41:09.056Z,102410.25
2018-05-07T08:43:35.183Z,102403.64
2018-05-07T08:46:01.317Z,102406.27
2018-05-07T08:48:27.485Z,102404.51
2018-05-07T08:50:53.670Z,102403.16
2018-05-07T08:53:19.809Z,102396.97
2018-05-07T08:55:46.193Z,102398.73
2018-05-07T08:58:12.362Z,102403.10
2018-05-07T09:00:38.511Z,102397.79
2018-05-07T09:03:04.680Z,102395.59
2018-05-07T09:05:30.816Z,102391.63
2018-05-07T09:07:56.984Z,102395.98
2018-05-07T09:10:23.592Z,102398.57
2018-05-07T09:12:50.093Z,102397.25
2018-05-07T09:15:16.287Z,102397.20
2018-05-07T09:17:42.897Z,102398.53
2018-05-07T09:20:09.041Z,102388.80
2018-05-07T09:22:35.181Z,102390.54
2018-05-07T09:25:01.363Z,102386.55
2018-05-07T09:27:27.642Z,102388.28
2018-05-07T09:29:53.803Z,102390.89
2018-05-07T09:32:20.182Z,102382.50
2018-05-07T09:34:46.459Z,102382.50
2018-05-07T09:37:12.613Z,102386.44
2018-05-07T09:39:38.750Z,102377.62
2018-05-07T09:42:05.002Z,102382.86
2018-05-07T09:44:31.469Z,102379.34
2018-05-07T09:46:57.601Z,102377.52
2018-05-07T09:49:24.029Z,102374.84
2018-05-07T09:51:50.157Z,102373.49
2018-05-07T09:54:16.342Z,102373.47
2018-05-07T09:56:53.846Z,102372.56
2018-05-07T09:59:19.974Z,102360.19
2018-05-07T10:01:46.118Z,102365.02
2018-05-07T10:04:12.314Z,102362.37
2018-05-07T10:06:38.469Z,102356.17
2018-05-07T10:09:04.658Z,102353.50
2018-05-07T10:11:30.852Z,102352.62
2018-05-07T10:13:56.996Z,102351.23
2018-05-07T10:16:23.170Z,102346.83
2018-05-07T10:18:49.756Z,102344.56
2018-05-07T10:21:15.893Z,102346.30
2018-05-07T10:23:42.283Z,102340.10
2018-05-07T10:26:08.459Z,102331.70
2018-05-07T10:28:34.618Z,102325.88
2018-05-07T10:31:00.930Z,102327.61
2018-05-07T10:33:27.070Z,102332.84
2018-05-07T10:35:53.213Z,102327.95
2018-05-07T10:38:19.377Z,102321.76
2018-05-07T10:40:45.504Z,102322.14
2018-05-07T10:43:11.706Z,102321.66
2018-05-07T10:45:38.124Z,102314.98
2018-05-07T10:48:04.303Z,102304.81
2018-05-07T10:50:30.439Z,102310.05
2018-05-07T10:52:56.616Z,102313.10
2018-05-07T10:55:22.813Z,102311.72
2018-05-07T10:57:49.264Z,102303.31
2018-05-07T11:00:15.398Z,102305.45
2018-05-07T11:02:41.567Z,102306.27
2018-05-07T11:05:07.741Z,102301.83
2018-05-07T11:07:33.877Z,102293.34
2018-05-07T11:10:00.029Z,102291.05
2018-05-07T11:12:26.318Z,102288.78
2018-05-07T11:14:52.458Z,102285.62
2018-05-07T11:17:18.629Z,102288.65
2018-05-07T11:19:44.855Z,102278.88
2018-05-07T11:22:10.957Z,102275.31
2018-05-07T11:24:37.232Z,102270.39
2018-05-07T11:27:03.374Z,102268.11
2018-05-07T11:29:29.525Z,102264.11
2018-05-07T11:31:55.810Z,102268.02
2018-05-07T11:34:22.276Z,102262.66
2018-05-07T11:36:48.404Z,102263.94
2018-05-07T11:39:14.837Z,102262.98
2018-05-07T11:41:41.267Z,102264.65
2018-05-07T11:44:07.854Z,102259.31
2018-05-07T11:46:33.982Z,102259.69
2018-05-07T11:49:00.121Z,102256.09
2018-05-07T11:51:26.293Z,102255.58
2018-05-07T11:53:52.435Z,102254.63
2018-05-07T11:56:18.997Z,102248.81
2018-05-07T11:58:45.141Z,102249.19
2018-05-07T12:01:11.308Z,102247.78
2018-05-07T12:03:37.476Z,102246.83
2018-05-07T12:06:03.653Z,102243.67
2018-05-07T12:08:29.806Z,102244.92
2018-05-07T12:10:55.972Z,102240.43
2018-05-07T12:13:22.441Z,102241.28
2018-05-07T12:15:49.121Z,102238.52
2018-05-07T12:18:15.256Z,102236.67
2018-05-07T12:20:41.865Z,102230.41
2018-05-07T12:23:08.054Z,102227.25
2018-05-07T12:25:34.166Z,102225.81
2018-05-07T12:28:00.329Z,102220.91
2018-05-07T12:30:26.715Z,102220.84
2018-05-07T12:32:52.883Z,102217.27
2018-05-07T12:35:19.049Z,102201.31
2018-05-07T12:37:45.204Z,102204.73
2018-05-07T12:40:11.375Z,102199.36
2018-05-07T12:42:37.515Z,102204.61
2018-05-07T12:45:03.662Z,102202.33
2018-05-07T12:47:29.803Z,102198.72
2018-05-07T12:49:56.372Z,102195.10
2018-05-07T12:52:22.573Z,102197.23
2018-05-07T12:54:48.664Z,102190.12
2018-05-07T12:57:14.969Z,102185.61
2018-05-07T12:59:41.119Z,102181.16
2018-05-07T13:02:07.249Z,102178.38
2018-05-07T13:04:33.410Z,102180.52
2018-05-07T13:06:59.873Z,102181.35
2018-05-07T13:09:26.065Z,102178.53
2018-05-07T13:11:52.217Z,102171.38
2018-05-07T13:14:18.354Z,102168.16
2018-05-07T13:16:44.645Z,102167.67
2018-05-07T13:19:10.791Z,102164.05
2018-05-07T13:21:36.954Z,102165.30
2018-05-07T13:24:03.131Z,102163.04
2018-05-07T13:26:29.596Z,102162.11
2018-05-07T13:28:55.893Z,102160.22
2018-05-07T13:31:22.039Z,102159.29
2018-05-07T13:33:48.173Z,102154.83
2018-05-07T13:36:14.623Z,102151.20
2018-05-07T13:38:40.977Z,102142.78
2018-05-07T13:41:07.111Z,102139.16
2018-05-07T13:43:33.258Z,102143.98
2018-05-07T13:45:59.529Z,102126.20
2018-05-07T13:48:25.657Z,102139.42
2018-05-07T13:50:51.803Z,102124.74
2018-05-07T13:53:17.990Z,102127.31
2018-05-07T13:55:44.162Z,102122.84
2018-05-07T13:58:10.287Z,102114.34
2018-05-07T14:00:36.584Z,102118.72
2018-05-07T14:03:02.957Z,102108.90
2018-05-07T14:05:29.091Z,102116.78
2018-05-07T14:07:55.329Z,102111.85
2018-05-07T14:10:21.484Z,102107.74
2018-05-07T14:12:47.635Z,102108.48
2018-05-07T14:15:14.051Z,102111.84
2018-05-07T14:17:40.413Z,102113.39
2018-05-07T14:20:06.726Z,102110.05
2018-05-07T14:22:32.876Z,102109.28
2018-05-07T14:24:59.023Z,102107.64
2018-05-07T14:27:25.517Z,102105.78
2018-05-07T14:29:51.888Z,102100.31
2018-05-07T14:32:18.023Z,102097.23
2018-05-07T14:34:44.195Z,102098.97
2018-05-07T14:37:10.481Z,102089.67
2018-05-07T14:39:36.845Z,102091.36
2018-05-07T14:42:02.978Z,102088.39
2018-05-07T14:44:29.142Z,102085.72
2018-05-07T14:46:55.274Z,102075.02
2018-05-07T14:49:21.562Z,102074.01
2018-05-07T14:51:47.984Z,102071.00
2018-05-07T14:54:14.349Z,102070.47
2018-05-07T14:56:41.262Z,102066.66
2018-05-07T14:59:07.394Z,102069.02
2018-05-07T15:01:33.624Z,102068.22
2018-05-07T15:04:00.600Z,102069.12
2018-05-07T15:06:26.767Z,102067.27
2018-05-07T15:08:53.223Z,102068.13
2018-05-07T15:11:19.388Z,102060.14
2018-05-07T15:13:45.650Z,102057.01
2018-05-07T15:16:11.805Z,102051.31
2018-05-07T15:18:38.149Z,102050.02
2018-05-07T15:21:04.303Z,102042.00
2018-05-07T15:23:30.492Z,102040.33
2018-05-07T15:25:56.784Z,102039.82
2018-05-07T15:28:22.928Z,102028.92
2018-05-07T15:30:49.337Z,102036.41
2018-05-07T15:33:15.628Z,102030.95
2018-05-07T15:35:41.775Z,102030.67
2018-05-07T15:38:07.917Z,102030.18
2018-05-07T15:40:34.520Z,102030.41
2018-05-07T15:43:00.679Z,102034.95
2018-05-07T15:45:27.078Z,102029.87
2018-05-07T15:47:53.388Z,102024.53
2018-05-07T15:50:19.546Z,102020.14
2018-05-07T15:52:45.697Z,102020.03
2018-05-07T15:55:11.880Z,102017.59
2018-05-07T15:57:38.064Z,102010.20
2018-05-07T16:00:04.233Z,102014.19
2018-05-07T16:02:30.678Z,102015.55
2018-05-07T16:04:57.050Z,102014.70
2018-05-07T16:07:24.091Z,102008.84
2018-05-07T16:09:50.260Z,102010.47
2018-05-07T16:12:16.444Z,102006.59
2018-05-07T16:14:42.655Z,102003.19
2018-05-07T16:17:08.849Z,102004.70
2018-05-07T16:19:35.260Z,102004.63
2018-05-07T16:22:01.576Z,102002.61
2018-05-07T16:24:27.611Z,102003.22
2018-05-07T16:26:54.653Z,102000.05
2018-05-07T16:29:20.799Z,101994.88
2018-05-07T16:31:46.958Z,101992.47
2018-05-07T16:34:13.129Z,101993.30
2018-05-07T16:36:39.266Z,101989.46
2018-05-07T16:39:05.605Z,101985.25
2018-05-07T16:41:31.766Z,101986.28
2018-05-07T16:43:58.135Z,101990.11
2018-05-07T16:46:24.314Z,101985.60
2018-05-07T16:48:50.523Z,101978.67
2018-05-07T16:51:16.923Z,101975.78
2018-05-07T16:53:43.053Z,101971.86
2018-05-07T16:56:09.193Z,101972.20
2018-05-07T16:58:35.609Z,101973.77
2018-05-07T17:01:01.762Z,101971.83
2018-05-07T17:03:27.932Z,101971.33
2018-05-07T17:05:54.121Z,101971.27
2018-05-07T17:08:20.312Z,101969.77
2018-05-07T17:10:46.491Z,101962.36
2018-05-07T17:13:12.692Z,101959.64
2018-05-07T17:15:38.833Z,101951.48
2018-05-07T17:18:04.989Z,101946.83
2018-05-07T17:20:31.246Z,101943.95
2018-05-07T17:22:57.415Z,101946.65
2018-05-07T17:25:23.575Z,101949.45
2018-05-07T17:27:49.759Z,101946.55
2018-05-07T17:30:15.970Z,101939.77
2018-05-07T17:32:42.350Z,101944.92
2018-05-07T17:35:08.515Z,101941.80
2018-05-07T17:37:34.709Z,101935.88
2018-05-07T17:40:00.853Z,101937.19
2018-05-07T17:42:27.377Z,101941.64
2018-05-07T17:45:10.329Z,101941.70
2018-05-07T17:47:48.777Z,101948.47
2018-05-07T17:50:14.975Z,101946.30
2018-05-07T17:52:41.337Z,101946.38
2018-05-07T17:55:07.521Z,101948.33
2018-05-07T17:57:33.821Z,101943.56
2018-05-07T18:00:00.038Z,101944.63
2018-05-07T18:02:26.407Z,101950.03
2018-05-07T18:04:52.572Z,101943.11
2018-05-07T18:07:18.726Z,101944.61
2018-05-07T18:09:44.938Z,101939.47
2018-05-07T18:12:11.178Z,101944.08
2018-05-07T18:14:37.283Z,101938.98
2018-05-07T18:17:03.457Z,101946.27
2018-05-07T18:19:29.603Z,101940.25
2018-05-07T18:21:55.825Z,101933.39
2018-05-07T18:24:22.004Z,101940.66
2018-05-07T18:26:48.162Z,101943.55
2018-05-07T18:29:14.336Z,101938.05
2018-05-07T18:31:40.490Z,101940.95
2018-05-07T18:34:06.680Z,101941.63
2018-05-07T18:36:33.270Z,101936.20
2018-05-07T18:38:59.429Z,101941.07
2018-05-07T18:41:25.582Z,101935.28
2018-05-07T18:43:51.749Z,101933.89
2018-05-07T18:46:17.922Z,101936.88
2018-05-07T18:48:44.076Z,101936.87
2018-05-07T18:51:10.418Z,101938.87
2018-05-07T18:53:36.580Z,101935.86
2018-05-07T18:56:02.763Z,101941.26
2018-05-07T18:58:28.984Z,101942.64
2018-05-07T19:00:55.172Z,101951.59
2018-05-07T19:03:21.343Z,101950.61
2018-05-07T19:05:47.574Z,101950.98
2018-05-07T19:08:13.846Z,101947.75
2018-05-07T19:10:40.001Z,101945.87
2018-05-07T19:13:06.170Z,101951.45
2018-05-07T19:15:32.341Z,101952.58
2018-05-07T19:17:58.545Z,101945.72
2018-05-07T19:20:24.679Z,101953.78
2018-05-07T19:22:50.880Z,101947.69
2018-05-07T19:25:17.327Z,101947.41
2018-05-07T19:27:43.791Z,101950.16
2018-05-07T19:30:09.954Z,101949.41
2018-05-07T19:32:36.342Z,101946.49
2018-05-07T19:35:02.500Z,101942.70
2018-05-07T19:37:28.647Z,101944.16
2018-05-07T19:39:54.860Z,101945.58
2018-05-07T19:42:21.252Z,101943.51
2018-05-07T19:44:47.429Z,101950.30
2018-05-07T19:47:13.597Z,101945.53
2018-05-07T19:49:39.961Z,101943.81
2018-05-07T19:52:06.270Z,101949.16
2018-05-07T19:54:32.389Z,101950.08
2018-05-07T19:56:58.555Z,101950.12
2018-05-07T19:59:25.134Z,101945.79
2018-05-07T20:01:51.273Z,101945.00
2018-05-07T20:04:17.445Z,101949.05
2018-05-07T20:06:43.948Z,101942.95
2018-05-07T20:09:10.043Z,101943.91
2018-05-07T20:11:36.248Z,101947.94
2018-05-07T20:14:02.386Z,101947.58
2018-05-07T20:16:28.530Z,101941.48
2018-05-07T20:18:54.744Z,101949.47
2018-05-07T20:21:21.282Z,101946.91
2018-05-07T20:23:47.595Z,101942.53
2018-05-07T20:26:13.974Z,101939.08
2018-05-07T20:28:40.155Z,101943.98
2018-05-07T20:31:06.281Z,101939.64
2018-05-07T20:33:32.899Z,101930.91
2018-05-07T20:35:59.020Z,101930.50
2018-05-07T20:38:25.190Z,101931.02
2018-05-07T20:40:51.357Z,101929.78
2018-05-07T20:43:17.806Z,101926.33
2018-05-07T20:45:44.227Z,101931.67
2018-05-07T20:48:10.392Z,101932.16
2018-05-07T20:50:36.694Z,101933.12
2018-05-07T20:53:02.847Z,101938.91
2018-05-07T20:55:29.055Z,101927.11
2018-05-07T20:57:55.262Z,101926.78
2018-05-07T21:00:21.412Z,101926.83
2018-05-07T21:02:47.567Z,101927.39
2018-05-07T21:05:13.970Z,101922.21
2018-05-07T21:07:40.109Z,101920.48
2018-05-07T21:10:06.290Z,101922.29
2018-05-07T21:12:32.421Z,101919.68
2018-05-07T21:14:58.598Z,101921.09
2018-05-07T21:17:24.765Z,101916.31
2018-05-07T21:19:50.911Z,101920.31
2018-05-07T21:22:17.094Z,101927.42
2018-05-07T21:24:43.585Z,101931.87
2018-05-07T21:27:09.728Z,101926.20
2018-05-07T21:29:35.933Z,101925.36
2018-05-07T21:32:02.389Z,101921.47
2018-05-07T21:34:28.553Z,101921.95
2018-05-07T21:36:54.696Z,101928.64
2018-05-07T21:39:20.856Z,101924.71
2018-05-07T21:41:47.002Z,101929.20
2018-05-07T21:44:13.329Z,101928.35
2018-05-07T21:46:39.500Z,101931.00
2018-05-07T21:49:05.659Z,101927.44
2018-05-07T21:51:31.862Z,101925.59
2018-05-07T21:53:58.001Z,101930.00
2018-05-07T21:56:24.145Z,101929.64
2018-05-07T21:58:50.674Z,101929.28
2018-05-07T22:01:16.849Z,101927.58
2018-05-07T22:03:43.038Z,101932.33
2018-05-07T22:06:09.176Z,101933.17
2018-05-07T22:08:35.360Z,101934.49
2018-05-07T22:11:01.850Z,101928.80
2018-05-07T22:13:28.005Z,101931.45
2018-05-07T22:15:54.170Z,101927.95
2018-05-07T22:18:20.358Z,101928.43
2018-05-07T22:20:46.544Z,101924.50
2018-05-07T22:23:12.693Z,101927.19
2018-05-07T22:25:38.917Z,101922.84
2018-05-07T22:28:05.064Z,101922.44
2018-05-07T22:30:31.282Z,101925.09
2018-05-07T22:32:57.425Z,101918.11
2018-05-07T22:35:23.567Z,101922.55
2018-05-07T22:37:49.790Z,101920.42
2018-05-07T22:40:15.939Z,101914.70
2018-05-07T22:42:43.034Z,101918.70
2018-05-07T22:45:09.219Z,101917.86
2018-05-07T22:47:35.382Z,101920.09
2018-05-07T22:50:01.530Z,101912.64
2018-05-07T22:52:27.698Z,101915.32
2018-05-07T22:55:00.144Z,101914.44
2018-05-07T22:57:26.298Z,101905.63
2018-05-07T22:59:52.460Z,101905.22
2018-05-07T23:02:18.733Z,101899.09
2018-05-07T23:04:44.869Z,101895.16
2018-05-07T23:07:11.008Z,101893.47
2018-05-07T23:09:37.169Z,101889.14
2018-05-07T23:12:03.313Z,101890.09
2018-05-07T23:14:29.889Z,101887.48
2018-05-07T23:16:56.100Z,101887.48
2018-05-07T23:19:22.553Z,101886.64
2018-05-07T23:21:48.825Z,101888.88
2018-05-07T23:24:14.973Z,101889.80
2018-05-07T23:26:41.125Z,101884.98
2018-05-07T23:29:07.560Z,101885.42
2018-05-07T23:31:33.737Z,101882.89
2018-05-07T23:34:00.249Z,101886.92
2018-05-07T23:36:26.656Z,101878.59
2018-05-07T23:38:52.806Z,101874.66
2018-05-07T23:41:18.989Z,101874.30
2018-05-07T23:43:45.580Z,101874.33
2018-05-07T23:46:11.725Z,101875.72
2018-05-07T23:48:37.935Z,101878.77
2018-05-07T23:51:04.131Z,101875.72
2018-05-07T23:53:30.274Z,101879.28
2018-05-07T23:55:56.457Z,101879.32
2018-05-07T23:58:22.630Z,101874.06
